Time,TemperatureF,DewpointF,PressureIn,WindDirection,WindDirectionDegrees,WindSpeedMPH,WindSpeedGustMPH,Humidity,HourlyPrecipIn,Conditions,Clouds,dailyrainin,SoftwareType,DateUTC
2013-08-28 10:24:00,64.0,50.0,-100.00,North,-999,0.0,0.0,61,0.00,,,-99.99,,2013-08-28 17:24:00,
2013-08-28 10:43:00,64.0,49.0,-100.00,North,-999,0.0,0.0,58,0.00,,,-99.99,,2013-08-28 17:43:00,
2013-08-28 10:52:00,66.0,50.0,-100.00,WNW,289,3.0,4.0,56,0.00,,,-99.99,,2013-08-28 17:52:00,
2013-08-28 11:12:00,66.0,50.0,-100.00,WNW,289,3.0,4.0,54,0.00,,,-99.99,,2013-08-28 18:12:00,
2013-08-28 11:21:00,66.0,50.0,-100.00,WNW,289,3.0,4.0,54,0.00,,,-99.99,,2013-08-28 18:21:00,
2013-08-28 11:42:00,67.0,50.0,-100.00,North,-999,0.0,0.0,53,0.00,,,-99.99,,2013-08-28 18:42:00,
2013-08-28 11:53:00,67.0,49.0,-100.00,West,264,4.0,7.0,52,0.00,,,-99.99,,2013-08-28 18:53:00,
2013-08-28 12:21:00,69.0,51.0,-100.00,West,271,3.0,4.0,53,0.00,,,-99.99,,2013-08-28 19:21:00,
2013-08-28 12:52:00,69.0,47.0,-100.00,West,275,3.0,5.0,45,0.00,,,-99.99,,2013-08-28 19:52:00,
2013-08-28 13:03:00,69.0,47.0,-100.00,West,280,6.0,10.0,45,0.00,,,-99.99,,2013-08-28 20:03:00,
2013-08-28 13:23:00,70.0,50.0,-100.00,West,280,6.0,10.0,48,0.00,,,-99.99,,2013-08-28 20:23:00,
2013-08-28 13:32:00,70.0,50.0,-100.00,WSW,254,8.0,17.0,48,0.00,,,-99.99,,2013-08-28 20:32:00,
2013-08-28 13:52:00,70.0,50.0,-100.00,WSW,257,7.0,13.0,48,0.00,,,-99.99,,2013-08-28 20:52:00,
2013-08-28 14:01:00,70.0,50.0,-100.00,WSW,257,10.0,18.0,48,0.00,,,-99.99,,2013-08-28 21:01:00,
2013-08-28 14:22:00,70.0,48.0,-100.00,WSW,257,9.0,15.0,45,0.00,,,-99.99,,2013-08-28 21:22:00,
2013-08-28 14:35:00,70.0,48.0,-100.00,West,278,8.0,17.0,45,0.00,,,-99.99,,2013-08-28 21:35:00,
2013-08-28 14:57:00,71.0,51.0,-100.00,WNW,289,4.0,7.0,47,0.00,,,-99.99,,2013-08-28 21:57:00,
2013-08-28 15:07:00,71.0,51.0,-100.00,WNW,289,4.0,7.0,47,0.00,,,-99.99,,2013-08-28 22:07:00,
2013-08-28 15:25:00,71.0,47.0,-100.00,West,272,9.0,23.0,42,0.00,,,-99.99,,2013-08-28 22:25:00,
2013-08-28 15:43:00,71.0,47.0,-100.00,WSW,254,6.0,13.0,42,0.00,,,-99.99,,2013-08-28 22:43:00,
2013-08-28 15:54:00,71.0,47.0,-100.00,NW,312,3.0,8.0,42,0.00,,,-99.99,,2013-08-28 22:54:00,
2013-08-28 16:13:00,72.0,49.0,-100.00,NW,312,3.0,8.0,45,0.00,,,-99.99,,2013-08-28 23:13:00,
2013-08-28 16:22:00,71.0,48.0,-100.00,NW,305,3.0,4.0,43,0.00,,,-99.99,,2013-08-28 23:22:00,
2013-08-28 16:42:00,71.0,49.0,-100.00,NW,305,3.0,4.0,45,0.00,,,-99.99,,2013-08-28 23:42:00,
2013-08-28 16:53:00,72.0,50.0,-100.00,West,280,2.0,5.0,46,0.00,,,-99.99,,2013-08-28 23:53:00,
2013-08-28 18:03:00,72.0,46.0,-100.00,WSW,241,5.0,9.0,39,0.00,,,-99.99,,2013-08-29 01:03:00,
2013-08-28 18:12:00,72.0,46.0,-100.00,WSW,241,5.0,9.0,39,0.00,,,-99.99,,2013-08-29 01:12:00,
2013-08-28 19:22:00,68.0,45.0,-100.00,West,271,4.0,6.0,44,0.00,,,-99.99,,2013-08-29 02:22:00,
2013-08-28 19:31:00,68.0,45.0,-100.00,West,271,4.0,6.0,44,0.00,,,-99.99,,2013-08-29 02:31:00,
2013-08-28 19:43:00,68.0,45.0,-100.00,West,271,4.0,6.0,44,0.00,,,-99.99,,2013-08-29 02:43:00,
2013-08-28 20:22:00,65.0,43.0,-100.00,ESE,104,3.0,4.0,45,0.00,,,-99.99,,2013-08-29 03:22:00,
2013-08-28 20:37:00,65.0,43.0,-100.00,ESE,104,3.0,4.0,45,0.00,,,-99.99,,2013-08-29 03:37:00,
2013-08-28 21:28:00,64.0,41.0,-100.00,ENE,62,4.0,8.0,42,0.00,,,-99.99,,2013-08-29 04:28:00,
2013-08-28 21:37:00,64.0,41.0,-100.00,ESE,120,3.0,5.0,42,0.00,,,-99.99,,2013-08-29 04:37:00,
2013-08-28 21:54:00,62.0,41.0,-100.00,ESE,110,2.0,3.0,45,0.00,,,-99.99,,2013-08-29 04:54:00,
2013-08-28 22:14:00,61.0,41.0,-100.00,ESE,110,2.0,3.0,46,0.00,,,-99.99,,2013-08-29 05:14:00,
2013-08-28 22:23:00,61.0,41.0,-100.00,SE,130,3.0,3.0,48,0.00,,,-99.99,,2013-08-29 05:23:00,
2013-08-28 22:52:00,60.0,41.0,-100.00,SE,126,3.0,4.0,50,0.00,,,-99.99,,2013-08-29 05:52:00,
2013-08-28 23:02:00,60.0,41.0,-100.00,SE,126,3.0,4.0,50,0.00,,,-99.99,,2013-08-29 06:02:00,
2013-08-28 23:22:00,60.0,41.0,-100.00,North,-999,0.0,0.0,50,0.00,,,-99.99,,2013-08-29 06:22:00,
2013-08-28 23:32:00,60.0,41.0,-100.00,North,-999,0.0,0.0,50,0.00,,,-99.99,,2013-08-29 06:32:00,
2013-08-28 23:52:00,59.0,41.0,-100.00,SE,128,4.0,5.0,51,0.00,,,-99.99,,2013-08-29 06:52:00,